Terminal Aerodrome Forecast
Issued by NWS Atlanta, GA

Home | Current Version | Previous Version | Text Only | Print | Product List | Glossary On
Versions: 1 2 3 4 5 6 7 8 9 10 11 12 13 14 15 16 17 18 19 20 21 22 23 24 25 26 27 28 29 30 31
000
FTUS42 KFFC 292333
TAFAHN
TAF
KAHN 292333Z 3000/3024 VRB03KT P6SM FEW050
     FM300700 19005KT P6SM BKN035
     FM301200 23006KT 6SM -RA BR OVC012
     FM301400 25008KT 5SM -RA BR BKN008 OVC012
     FM301700 29012KT P6SM BKN040
     FM302100 30014KT P6SM FEW040=

USA.gov is the U.S. government's official web portal to all federal, state and local government web resources and services.